createdAt,value
2023-04-23T00:01:30.265Z,7
2023-04-23T00:11:35.711Z,6
2023-04-23T00:21:41.114Z,6
2023-04-23T00:31:47.630Z,7
2023-04-23T00:41:52.780Z,8
2023-04-23T00:51:59.936Z,7
2023-04-23T01:02:06.265Z,6
2023-04-23T01:12:12.431Z,7
2023-04-23T01:22:19.895Z,7
2023-04-23T01:32:26.185Z,6
2023-04-23T01:42:31.555Z,5
2023-04-23T01:52:38.277Z,7
2023-04-23T02:02:45.074Z,8
2023-04-23T02:12:49.785Z,8
2023-04-23T02:22:56.354Z,5
2023-04-23T02:33:02.142Z,6
2023-04-23T02:43:07.605Z,6
2023-04-23T02:53:13.746Z,5
2023-04-23T03:03:20.736Z,5
2023-04-23T03:13:26.689Z,6
2023-04-23T03:23:31.664Z,6
2023-04-23T03:33:38.213Z,10
2023-04-23T03:43:43.243Z,7
2023-04-23T03:53:50.081Z,8
2023-04-23T04:03:57.667Z,6
2023-04-23T04:14:02.573Z,5
2023-04-23T04:24:08.190Z,5
2023-04-23T04:34:13.315Z,6
2023-04-23T04:44:18.733Z,11
2023-04-23T04:54:24.932Z,10
2023-04-23T05:04:31.841Z,20
2023-04-23T05:14:37.030Z,11
2023-04-23T05:24:43.742Z,12
2023-04-23T05:34:50.131Z,11
2023-04-23T05:44:54.986Z,18
2023-04-23T05:55:00.938Z,10
2023-04-23T06:05:08.880Z,9
2023-04-23T06:15:12.217Z,9
2023-04-23T06:25:18.900Z,8
2023-04-23T06:35:44.277Z,11
2023-04-23T06:45:38.534Z,10
2023-04-23T06:55:43.136Z,10
2023-04-23T07:05:52.251Z,8
2023-04-23T07:15:58.615Z,10
2023-04-23T07:26:03.463Z,12
2023-04-23T07:36:09.971Z,7
2023-04-23T07:46:17.261Z,8
2023-04-23T07:56:25.143Z,7
2023-04-23T08:06:31.840Z,7
2023-04-23T08:16:39.036Z,6
2023-04-23T08:26:43.247Z,9
2023-04-23T08:36:48.983Z,7
2023-04-23T08:46:55.529Z,7
2023-04-23T08:57:02.095Z,7
2023-04-23T09:07:09.881Z,7
2023-04-23T09:17:16.202Z,7
2023-04-23T09:27:22.563Z,7
2023-04-23T09:37:28.106Z,8
2023-04-23T09:47:36.021Z,7
2023-04-23T09:57:43.299Z,6
2023-04-23T10:08:07.627Z,6
2023-04-23T10:18:15.750Z,7
2023-04-23T10:28:39.001Z,6
2023-04-23T10:38:32.891Z,8
2023-04-23T10:48:40.410Z,4
2023-04-23T10:59:10.936Z,5
2023-04-23T11:09:18.187Z,11
2023-04-23T11:19:24.447Z,8
2023-04-23T11:39:36.578Z,10
2023-04-23T11:49:42.788Z,6
2023-04-23T11:59:50.342Z,5
2023-04-23T12:09:57.305Z,5
2023-04-23T12:20:05.151Z,7
2023-04-23T12:30:12.078Z,6
2023-04-23T12:40:17.982Z,13
2023-04-23T12:50:26.437Z,12
2023-04-23T13:00:32.363Z,6
2023-04-23T13:10:37.415Z,5
2023-04-23T13:20:43.755Z,9
2023-04-23T13:40:57.500Z,8
2023-04-23T13:51:02.883Z,5
2023-04-23T14:01:08.477Z,9
2023-04-23T14:11:14.759Z,7
2023-04-23T14:21:23.674Z,6
2023-04-23T14:31:29.857Z,7
2023-04-23T14:41:37.085Z,5
2023-04-23T14:51:43.881Z,6
2023-04-23T15:01:52.761Z,6
2023-04-23T15:11:56.583Z,8
2023-04-23T15:22:04.756Z,6
2023-04-23T15:32:11.202Z,8
2023-04-23T15:52:22.323Z,9
2023-04-23T16:02:29.275Z,11
2023-04-23T16:12:34.203Z,10
2023-04-23T16:22:39.570Z,9
2023-04-23T16:32:46.644Z,9
2023-04-23T16:42:51.863Z,11
2023-04-23T16:52:58.063Z,19
2023-04-23T17:03:05.999Z,13
2023-04-23T17:13:11.286Z,12
2023-04-23T17:23:17.616Z,8
2023-04-23T17:33:25.354Z,10
2023-04-23T17:43:32.615Z,14
2023-04-23T17:53:39.205Z,12
2023-04-23T18:03:48.214Z,9
2023-04-23T18:13:53.289Z,13
2023-04-23T18:23:58.044Z,12
2023-04-23T18:34:04.856Z,12
2023-04-23T18:44:12.145Z,7
2023-04-23T18:54:17.760Z,4
2023-04-23T19:04:26.008Z,7
2023-04-23T19:14:31.506Z,4
2023-04-23T19:24:37.767Z,4
2023-04-23T19:34:43.762Z,4
2023-04-23T19:44:51.823Z,6
2023-04-23T19:55:00.731Z,7
2023-04-23T20:05:07.759Z,5
2023-04-23T20:15:12.897Z,4
2023-04-23T20:25:20.793Z,12
2023-04-23T20:35:25.076Z,5
2023-04-23T20:45:30.935Z,6
2023-04-23T20:55:36.186Z,5
2023-04-23T21:05:43.111Z,6
2023-04-23T21:15:49.901Z,5
2023-04-23T21:25:55.226Z,5
2023-04-23T21:36:01.561Z,6
2023-04-23T21:46:08.487Z,4
2023-04-23T21:56:14.593Z,4
2023-04-23T22:06:19.982Z,4
2023-04-23T22:16:29.196Z,4
2023-04-23T22:26:34.367Z,2
2023-04-23T22:36:40.521Z,3
2023-04-23T22:46:48.177Z,3
2023-04-23T22:56:54.673Z,3
2023-04-23T23:07:00.711Z,3
2023-04-23T23:17:07.155Z,2
2023-04-23T23:27:12.837Z,2
2023-04-23T23:37:18.073Z,4
2023-04-23T23:47:25.724Z,2
2023-04-23T23:57:29.650Z,2
